Flugplatz Arnstadt-Alkersleben

Für EDBA sind keine METAR/TAF Berichte vorhanden.
Es werden die Flugwettermeldungen vom Flugplatz Erfurt in 17 km Entfernung angezeigt.

Bericht für EDDE

vom 31.05. um 03:20 UTC

Wind 6 kt aus 10°

Sichtweite 10 km oder mehr

gute Sicht, keine Wolken < 5000 ft, keine CB, keine Wettererscheinungen (CAVOK)

Temperatur 7.0°C

Taupunkt 3.0°C

Luftfeuchtigkeit 76%

Luftdruck 1022 hPa

EDDE 310320Z 01006KT CAVOK 07/03 Q1022

Prognose für EDDE

vom 30.05. um 23:00 UTC

Zwischen 00:00 UTC und 06:00 UTC

variable Windrichtung mit 3 kt

Sichtweite 10 km oder mehr

aufgelockert bewölkt in 4500 ft


Zwischen 06:00 und 09:00 UTC übergehend zu

Wind 10 kt aus 10°

Sichtweite 10 km oder mehr

aufgelockert bewölkt in 4500 ft


Zwischen 17:00 und 20:00 UTC übergehend zu

Wind 5 kt aus 20°

Sichtweite 10 km oder mehr

aufgelockert bewölkt in 4500 ft

TAF EDDE 302300Z 3100/3124 VRB03KT 9999 SCT045 BECMG 3106/3109 01010KT BECMG 3117/3120 02005KT
Impressum